Terminal Aerodrome Forecast
Issued by NWS Cleveland, OH

Home | Current Version | Previous Version | Graphics & Text | Print | Product List | Glossary On
Versions: 1 2 3 4 5 6 7 8 9 10 11 12 13 14 15 16 17 18 19
000
FTUS41 KCLE 300806 AAA
TAFMFD
TAF AMD
KMFD 300806Z 3008/0106 26006KT P6SM BKN007 OVC015
      TEMPO 3009/3013 3SM BR
     FM301400 22008KT P6SM OVC015
     FM301800 22008KT P6SM -SHRA BKN025 OVC035
      TEMPO 3018/3022 3SM TSRA OVC015CB
     FM302300 22007KT P6SM OVC100=

USA.gov is the U.S. government's official web portal to all federal, state and local government web resources and services.